.
WxDataArchive / Data Records for 2014-12-29
2014-12-28 December 2014 2014-12-30

Data Records for Monday, 29 December 2014

Time	Temp	Chill	HIndex	Humid	Dewpt	 Wind 	HiWind	WindDir	Rain 	Barom
-----	----	-----	------	-----	-----	------	------	-------	-----	-----
00:00	24.7	24.7	24.7	88	21.7	0	0	---	0.00	30.247 
00:05	24.5	24.5	24.5	88	21.5	0	0	---	0.00	30.247 
00:10	24.5	24.5	24.5	88	21.5	0	0	---	0.00	30.247 
00:15	24.4	24.4	24.4	88	21.4	0	0	---	0.00	30.247 
00:20	24.2	24.2	24.2	88	21.2	0	0	---	0.00	30.247 
00:25	24.1	24.1	24.1	88	21.1	0	0	---	0.00	30.247 
00:30	23.9	23.9	23.9	88	20.9	0	0	---	0.00	30.249 
00:35	23.9	23.9	23.9	89	21.1	0	0	---	0.00	30.249 
00:40	23.9	23.9	23.9	89	21.1	0	0	---	0.00	30.249 
00:45	23.9	23.9	23.9	89	21.1	0	0	---	0.00	30.249 
00:50	23.8	23.8	23.8	89	21.0	0	0	---	0.00	30.249 
00:55	23.8	23.8	23.8	89	21.0	0	0	---	0.00	30.249 
01:00	23.6	23.6	23.6	89	20.8	0	0	---	0.00	30.248 
01:05	23.5	23.5	23.5	89	20.7	0	0	---	0.00	30.248 
01:10	23.3	23.3	23.3	89	20.5	0	0	---	0.00	30.248 
01:15	23.2	23.2	23.2	89	20.4	0	0	---	0.00	30.245 
01:20	23.0	23.0	23.0	89	20.3	0	0	---	0.00	30.245 
01:25	23.0	23.0	23.0	89	20.3	0	0	---	0.00	30.245 
01:30	23.0	23.0	23.0	89	20.3	0	0	---	0.00	30.243 
01:35	22.9	22.9	22.9	89	20.2	0	0	---	0.00	30.243 
01:40	22.9	22.9	22.9	89	20.2	0	0	---	0.00	30.243 
01:45	22.9	22.9	22.9	89	20.2	0	0	---	0.00	30.241 
01:50	22.7	22.7	22.7	90	20.2	0	0	---	0.00	30.241 
01:55	22.7	22.7	22.7	90	20.2	0	0	---	0.00	30.241 
02:00	22.7	22.7	22.7	90	20.2	0	0	---	0.00	30.245 
02:05	22.5	22.5	22.5	90	20.0	0	0	---	0.00	30.245 
02:10	22.4	22.4	22.4	90	19.9	0	0	---	0.00	30.245 
02:15	22.2	22.2	22.2	90	19.7	0	0	---	0.00	30.250 
02:20	22.2	22.2	22.2	90	19.7	0	0	---	0.00	30.250 
02:25	22.1	22.1	22.1	90	19.6	0	0	---	0.00	30.250 
02:30	21.9	21.9	21.9	90	19.4	0	0	---	0.00	30.254 
02:35	21.8	21.8	21.8	90	19.3	0	0	---	0.00	30.254 
02:40	21.6	21.6	21.6	90	19.1	0	0	---	0.00	30.254 
02:45	21.4	21.4	21.4	90	18.9	0	0	---	0.00	30.256 
02:50	21.4	21.4	21.4	90	18.9	0	0	---	0.00	30.256 
02:55	21.3	21.3	21.3	90	18.8	0	0	---	0.00	30.256 
03:00	21.3	21.3	21.3	90	18.8	0	0	---	0.00	30.264 
03:05	21.3	21.3	21.3	90	18.8	0	0	---	0.00	30.264 
03:10	21.1	21.1	21.1	90	18.6	0	0	---	0.00	30.264 
03:15	21.1	21.1	21.1	90	18.6	0	0	---	0.00	30.269 
03:20	21.0	21.0	21.0	90	18.5	0	0	---	0.00	30.269 
03:25	20.8	20.8	20.8	90	18.3	0	0	---	0.00	30.269 
03:30	20.6	20.6	20.6	90	18.1	0	0	---	0.00	30.271 
03:35	20.6	20.6	20.6	90	18.1	0	0	---	0.00	30.271 
03:40	20.5	20.5	20.5	90	18.0	0	0	---	0.00	30.271 
03:45	20.3	20.3	20.3	90	17.8	0	0	---	0.00	30.272 
03:50	20.3	20.3	20.3	90	17.8	0	0	---	0.00	30.272 
03:55	20.2	20.2	20.2	90	17.7	0	0	---	0.00	30.272 
04:00	20.0	20.0	20.0	90	17.5	0	0	---	0.00	30.273 
04:05	19.9	19.9	19.9	90	17.5	0	0	---	0.00	30.273 
04:10	19.9	19.9	19.9	90	17.5	0	0	---	0.00	30.273 
04:15	19.7	19.7	19.7	90	17.3	0	0	---	0.00	30.272 
04:20	19.7	19.7	19.7	90	17.3	0	0	---	0.00	30.272 
04:25	19.5	19.5	19.5	90	17.1	0	0	---	0.00	30.272 
04:30	19.4	19.4	19.4	90	17.0	0	0	---	0.00	30.271 
04:35	19.4	19.4	19.4	90	17.0	0	0	---	0.00	30.271 
04:40	19.4	19.4	19.4	90	17.0	0	0	---	0.00	30.271 
04:45	19.2	19.2	19.2	90	16.8	0	0	---	0.00	30.270 
04:50	19.2	19.2	19.2	90	16.8	0	0	---	0.00	30.270 
04:55	19.2	19.2	19.2	90	16.8	0	0	---	0.00	30.270 
05:00	19.2	19.2	19.2	90	16.8	0	0	---	0.00	30.261 
05:05	19.2	19.2	19.2	90	16.8	0	0	---	0.00	30.261 
05:10	19.1	19.1	19.1	90	16.7	0	0	---	0.00	30.261 
05:15	19.1	19.1	19.1	90	16.7	0	0	---	0.00	30.262 
05:20	19.1	19.1	19.1	90	16.7	0	0	---	0.00	30.262 
05:25	18.9	18.9	18.9	90	16.5	0	0	---	0.00	30.262 
05:30	18.9	18.9	18.9	90	16.5	0	0	---	0.00	30.262 
05:35	18.8	18.8	18.8	90	16.4	0	0	---	0.00	30.262 
05:40	18.8	18.8	18.8	90	16.4	0	0	---	0.00	30.262 
05:45	18.8	18.8	18.8	90	16.4	0	0	---	0.00	30.267 
05:50	18.8	18.8	18.8	90	16.4	0	0	---	0.00	30.267 
05:55	18.8	18.8	18.8	90	16.4	0	0	---	0.00	30.267 
06:00	18.8	18.8	18.8	89	16.1	0	0	---	0.00	30.270 
06:05	18.6	18.6	18.6	89	15.9	0	0	---	0.00	30.270 
06:10	18.6	18.6	18.6	89	15.9	0	0	---	0.00	30.270 
06:15	18.6	18.6	18.6	89	15.9	0	0	---	0.00	30.278 
06:20	18.6	18.6	18.6	90	16.2	0	0	---	0.00	30.278 
06:25	18.8	18.8	18.8	90	16.4	0	0	---	0.00	30.278 
06:30	18.9	18.9	18.9	90	16.5	0	0	---	0.00	30.288 
06:35	19.1	19.1	19.1	90	16.7	0	0	---	0.00	30.288 
06:40	19.1	19.1	19.1	90	16.7	0	0	---	0.00	30.288 
06:45	19.2	19.2	19.2	90	16.8	0	0	---	0.00	30.295 
06:50	19.2	19.2	19.2	90	16.8	0	0	---	0.00	30.295 
06:55	19.2	19.2	19.2	90	16.8	0	0	---	0.00	30.295 
07:00	19.2	19.2	19.2	90	16.8	0	0	---	0.00	30.297 
07:05	19.4	19.4	19.4	90	17.0	0	0	---	0.00	30.297 
07:10	19.4	19.4	19.4	90	17.0	0	0	---	0.00	30.297 
07:15	19.5	19.5	19.5	90	17.1	0	0	---	0.00	30.303 
07:20	19.7	19.7	19.7	90	17.3	0	0	---	0.00	30.303 
07:25	19.7	19.7	19.7	90	17.3	0	0	---	0.00	30.303 
07:30	19.9	19.9	19.9	90	17.5	0	0	---	0.00	30.305 
07:35	20.0	20.0	20.0	90	17.5	0	0	---	0.00	30.305 
07:40	20.2	20.2	20.2	90	17.7	0	0	---	0.00	30.305 
07:45	20.3	20.3	20.3	90	17.8	0	0	---	0.00	30.308 
07:50	20.5	20.5	20.5	90	18.0	0	0	---	0.00	30.308 
07:55	20.6	20.6	20.6	90	18.1	0	0	---	0.00	30.308 
08:00	20.8	20.8	20.8	90	18.3	0	0	---	0.00	30.312 
08:05	21.0	21.0	21.0	91	18.8	0	0	---	0.00	30.312 
08:10	21.1	21.1	21.1	91	18.9	0	0	---	0.00	30.312 
08:15	21.4	21.4	21.4	91	19.2	0	0	---	0.00	30.322 
08:20	21.6	21.6	21.6	91	19.4	0	0	---	0.00	30.322 
08:25	21.9	21.9	21.9	91	19.7	0	0	---	0.00	30.322 
08:30	22.1	22.1	22.1	91	19.9	0	0	---	0.00	30.322 
08:35	22.2	22.2	22.2	91	20.0	0	0	---	0.00	30.322 
08:40	22.5	22.5	22.5	91	20.3	0	0	---	0.00	30.322 
08:45	22.9	22.9	22.9	91	20.7	0	0	---	0.00	30.322 
08:50	23.2	23.2	23.2	91	21.0	0	0	---	0.00	30.322 
08:55	23.3	23.3	23.3	91	21.1	0	0	---	0.00	30.322 
09:00	23.6	23.6	23.6	91	21.4	0	0	---	0.00	30.321 
09:05	23.9	23.9	23.9	92	21.9	0	0	---	0.00	30.321 
09:10	24.1	24.1	24.1	92	22.1	0	0	---	0.00	30.321 
09:15	24.4	24.4	24.4	92	22.4	0	1	135	0.00	30.332 
09:20	24.7	24.7	24.7	92	22.7	0	1	---	0.00	30.332 
09:25	25.0	25.0	25.0	92	23.0	0	0	---	0.00	30.332 
09:30	25.4	25.4	25.4	92	23.4	0	0	---	0.00	30.337 
09:35	25.7	25.7	25.7	92	23.7	0	0	---	0.00	30.337 
09:40	26.0	26.0	26.0	92	24.0	0	0	---	0.00	30.337 
09:45	26.3	26.3	26.3	92	24.3	0	0	---	0.00	30.337 
09:50	26.6	26.6	26.6	92	24.6	0	0	---	0.00	30.337 
09:55	26.9	26.9	26.9	92	24.9	0	0	---	0.00	30.337 
10:00	27.0	27.0	27.0	92	25.0	0	0	---	0.00	30.343 
10:05	27.3	27.3	27.3	92	25.3	0	0	---	0.00	30.343 
10:10	27.6	27.6	27.6	92	25.6	0	0	---	0.00	30.343 
10:15	27.8	27.8	27.8	92	25.8	0	0	---	0.00	30.346 
10:20	27.9	27.9	27.9	91	25.6	0	0	---	0.00	30.346 
10:25	28.2	28.2	28.2	91	25.9	0	0	---	0.00	30.346 
10:30	28.2	28.2	28.2	91	25.9	0	0	---	0.00	30.350 
10:35	28.4	28.4	28.4	90	25.8	0	0	---	0.00	30.350 
10:40	28.4	28.4	28.4	88	25.3	0	1	135	0.00	30.350 
10:45	28.5	28.5	28.5	87	25.1	0	0	---	0.00	30.352 
10:50	28.7	28.7	28.7	85	24.8	0	1	135	0.00	30.352 
10:55	28.8	28.8	28.8	84	24.6	0	0	---	0.00	30.352 
11:00	29.1	29.1	29.1	83	24.6	0	1	135	0.00	30.357 
11:05	29.3	29.3	29.3	81	24.2	0	2	135	0.00	30.357 
11:10	29.4	29.4	29.4	78	23.4	0	2	135	0.00	30.357 
11:15	29.4	29.4	29.4	76	22.8	0	2	135	0.00	30.362 
11:20	29.4	29.4	29.4	77	23.1	0	2	135	0.00	30.362 
11:25	29.5	29.5	29.5	75	22.6	0	2	135	0.00	30.362 
11:30	29.7	29.7	29.7	74	22.4	0	1	135	0.00	30.354 
11:35	29.8	29.8	29.8	74	22.5	0	1	135	0.00	30.354 
11:40	30.0	30.0	30.0	73	22.4	0	2	135	0.00	30.354 
11:45	30.1	30.1	30.1	72	22.2	0	3	135	0.00	30.352 
11:50	30.1	30.1	30.1	72	22.2	0	1	135	0.00	30.352 
11:55	30.6	30.6	30.6	73	23.0	0	1	135	0.00	30.352 
12:00	30.7	30.7	30.7	71	22.4	0	1	135	0.00	30.347 
12:05	30.7	30.7	30.7	70	22.1	0	1	135	0.00	30.347 
12:10	30.9	30.9	30.9	70	22.3	0	1	135	0.00	30.347 
12:15	30.9	30.9	30.9	69	21.9	0	1	135	0.00	30.342 
12:20	31.0	31.0	31.0	70	22.4	0	2	135	0.00	30.342 
12:25	31.0	31.0	31.0	70	22.4	0	1	135	0.00	30.342 
12:30	31.2	31.2	31.2	70	22.6	0	1	135	0.00	30.336 
12:35	31.2	31.2	31.2	69	22.2	0	2	135	0.00	30.336 
12:40	31.2	31.2	31.2	68	21.9	0	2	135	0.00	30.336 
12:45	31.2	31.2	31.2	67	21.5	1	3	135	0.00	30.333 
12:50	31.3	31.3	31.3	68	22.0	0	2	135	0.00	30.333 
12:55	31.5	31.5	31.5	68	22.2	1	4	112	0.00	30.333 
13:00	31.8	31.8	31.8	67	22.1	0	2	112	0.00	30.330 
13:05	31.9	31.9	31.9	67	22.2	0	2	22	0.00	30.330 
13:10	32.1	32.1	32.1	68	22.7	0	2	22	0.00	30.330 
13:15	31.9	31.9	31.9	67	22.2	0	2	22	0.00	30.326 
13:20	31.9	31.9	31.9	68	22.6	0	1	22	0.00	30.326 
13:25	32.1	32.1	32.1	65	21.7	0	2	22	0.00	30.326 
13:30	32.2	32.2	32.2	63	21.0	0	2	22	0.00	30.320 
13:35	32.4	32.4	32.4	62	20.9	1	3	0	0.00	30.320 
13:40	32.4	32.4	32.4	60	20.1	1	3	0	0.00	30.320 
13:45	32.4	32.4	32.4	63	21.2	0	1	0	0.00	30.317 
13:50	32.5	32.5	32.5	62	20.9	0	1	0	0.00	30.317 
13:55	32.7	32.7	32.7	62	21.1	0	3	0	0.00	30.317 
14:00	32.8	32.8	32.8	64	22.0	0	3	68	0.00	30.312 
14:05	32.8	32.8	32.8	63	21.6	0	2	68	0.00	30.312 
14:10	32.9	32.9	32.9	62	21.3	0	3	68	0.00	30.312 
14:15	33.2	33.2	33.2	62	21.6	0	2	68	0.00	30.313 
14:20	33.1	33.1	33.1	62	21.5	0	1	68	0.00	30.313 
14:25	32.8	32.8	32.8	63	21.6	0	1	68	0.00	30.313 
14:30	32.5	32.5	32.5	62	20.9	0	3	68	0.00	30.316 
14:35	32.4	32.4	32.4	62	20.9	0	3	68	0.00	30.316 
14:40	32.2	32.2	32.2	63	21.0	0	1	68	0.00	30.316 
14:45	32.4	32.4	32.4	62	20.9	1	3	68	0.00	30.318 
14:50	32.4	32.4	32.4	62	20.9	0	2	270	0.00	30.318 
14:55	32.2	32.2	32.2	62	20.7	0	1	270	0.00	30.318 
15:00	32.1	32.1	32.1	61	20.2	0	1	270	0.00	30.322 
15:05	32.2	32.2	32.2	61	20.3	0	2	270	0.00	30.322 
15:10	32.4	32.4	32.4	59	19.7	0	2	270	0.00	30.322 
15:15	32.7	32.7	32.7	59	20.0	1	4	45	0.00	30.329 
15:20	32.4	32.4	32.4	57	18.9	0	2	90	0.00	30.329 
15:25	31.9	31.9	31.9	56	18.0	0	3	90	0.00	30.329 
15:30	31.6	31.6	31.6	56	17.7	0	2	90	0.00	30.334 
15:35	31.5	31.5	31.5	57	18.0	0	0	---	0.00	30.334 
15:40	31.6	31.6	31.6	58	18.5	0	1	90	0.00	30.334 
15:45	32.1	32.1	32.1	57	18.6	0	2	90	0.00	30.335 
15:50	32.2	32.2	32.2	55	17.9	0	2	90	0.00	30.335 
15:55	32.5	32.5	32.5	55	18.2	0	1	90	0.00	30.335 
16:00	32.5	32.5	32.5	55	18.2	0	1	90	0.00	30.340 
16:05	32.4	32.4	32.4	55	18.1	0	1	90	0.00	30.340 
16:10	32.1	32.1	32.1	55	17.8	0	2	90	0.00	30.340 
16:15	31.8	31.8	31.8	54	17.1	0	1	90	0.00	30.346 
16:20	31.5	31.5	31.5	54	16.8	0	1	90	0.00	30.346 
16:25	31.5	31.5	31.5	56	17.6	0	1	90	0.00	30.346 
16:30	31.5	31.5	31.5	55	17.2	0	1	90	0.00	30.351 
16:35	31.3	31.3	31.3	55	17.0	0	2	90	0.00	30.351 
16:40	31.3	31.3	31.3	55	17.0	0	1	90	0.00	30.351 
16:45	31.3	31.3	31.3	55	17.0	0	1	90	0.00	30.347 
16:50	31.2	31.2	31.2	56	17.4	0	0	---	0.00	30.347 
16:55	31.2	31.2	31.2	56	17.4	0	0	---	0.00	30.347 
17:00	31.0	31.0	31.0	56	17.2	0	1	90	0.00	30.352 
17:05	30.9	30.9	30.9	56	17.1	0	1	90	0.00	30.352 
17:10	30.7	30.7	30.7	55	16.5	0	1	90	0.00	30.352 
17:15	30.4	30.4	30.4	55	16.2	0	0	---	0.00	30.357 
17:20	30.3	30.3	30.3	55	16.1	0	0	---	0.00	30.357 
17:25	30.0	30.0	30.0	56	16.2	0	0	---	0.00	30.357 
17:30	29.8	29.8	29.8	56	16.0	0	0	---	0.00	30.359 
17:35	29.5	29.5	29.5	57	16.2	0	0	---	0.00	30.359 
17:40	29.3	29.3	29.3	57	16.0	0	0	---	0.00	30.359 
17:45	29.0	29.0	29.0	58	16.1	0	0	---	0.00	30.363 
17:50	28.5	28.5	28.5	59	16.0	0	0	---	0.00	30.363 
17:55	28.4	28.4	28.4	59	15.9	0	0	---	0.00	30.363 
18:00	28.1	28.1	28.1	62	16.8	0	0	---	0.00	30.368 
18:05	27.8	27.8	27.8	62	16.5	0	0	---	0.00	30.368 
18:10	27.5	27.5	27.5	63	16.6	0	0	---	0.00	30.368 
18:15	27.2	27.2	27.2	64	16.7	0	0	---	0.00	30.374 
18:20	27.0	27.0	27.0	65	16.8	0	0	---	0.00	30.374 
18:25	26.9	26.9	26.9	65	16.7	0	0	---	0.00	30.374 
18:30	26.7	26.7	26.7	65	16.5	0	0	---	0.00	30.373 
18:35	26.4	26.4	26.4	67	17.0	0	0	---	0.00	30.373 
18:40	26.3	26.3	26.3	67	16.9	0	0	---	0.00	30.373 
18:45	26.0	26.0	26.0	67	16.6	0	0	---	0.00	30.376 
18:50	25.7	25.7	25.7	68	16.6	0	0	---	0.00	30.376 
18:55	25.6	25.6	25.6	68	16.5	0	0	---	0.00	30.376 
19:00	25.4	25.4	25.4	69	16.7	0	0	---	0.00	30.386 
19:05	25.3	25.3	25.3	69	16.6	0	0	---	0.00	30.386 
19:10	25.0	25.0	25.0	70	16.6	0	0	---	0.00	30.386 
19:15	24.8	24.8	24.8	71	16.8	0	0	---	0.00	30.389 
19:20	24.7	24.7	24.7	72	17.0	0	0	---	0.00	30.389 
19:25	24.5	24.5	24.5	72	16.8	0	0	---	0.00	30.389 
19:30	24.4	24.4	24.4	73	17.0	0	0	---	0.00	30.394 
19:35	24.2	24.2	24.2	73	16.8	0	0	---	0.00	30.394 
19:40	24.1	24.1	24.1	74	17.0	0	0	---	0.00	30.394 
19:45	23.8	23.8	23.8	74	16.7	0	0	---	0.00	30.392 
19:50	23.6	23.6	23.6	75	16.9	0	0	---	0.00	30.392 
19:55	23.5	23.5	23.5	75	16.8	0	0	---	0.00	30.392 
20:00	23.3	23.3	23.3	75	16.6	0	0	---	0.00	30.392 
20:05	23.2	23.2	23.2	76	16.8	0	0	---	0.00	30.392 
20:10	23.2	23.2	23.2	76	16.8	0	0	---	0.00	30.392 
20:15	23.0	23.0	23.0	76	16.6	0	0	---	0.00	30.394 
20:20	22.9	22.9	22.9	76	16.5	0	0	---	0.00	30.394 
20:25	22.7	22.7	22.7	77	16.6	0	0	---	0.00	30.394 
20:30	22.5	22.5	22.5	77	16.4	0	0	---	0.00	30.395 
20:35	22.5	22.5	22.5	77	16.4	0	0	---	0.00	30.395 
20:40	22.4	22.4	22.4	78	16.6	0	0	---	0.00	30.395 
20:45	22.5	22.5	22.5	78	16.7	0	0	---	0.00	30.393 
20:50	22.7	22.7	22.7	78	16.9	0	0	---	0.00	30.393 
20:55	22.7	22.7	22.7	77	16.6	0	0	---	0.00	30.393 
21:00	22.9	22.9	22.9	76	16.5	0	0	---	0.00	30.398 
21:05	23.0	23.0	23.0	76	16.6	0	0	---	0.00	30.398 
21:10	23.2	23.2	23.2	75	16.5	0	0	---	0.00	30.398 
21:15	23.3	23.3	23.3	73	15.9	0	0	---	0.00	30.399 
21:20	23.5	23.5	23.5	73	16.1	0	0	---	0.00	30.399 
21:25	23.6	23.6	23.6	72	15.9	0	0	---	0.00	30.399 
21:30	23.8	23.8	23.8	70	15.5	0	0	---	0.00	30.400 
21:35	23.8	23.8	23.8	69	15.1	0	0	---	0.00	30.400 
21:40	23.8	23.8	23.8	69	15.1	0	0	---	0.00	30.400 
21:45	23.8	23.8	23.8	69	15.1	0	0	---	0.00	30.402 
21:50	23.8	23.8	23.8	68	14.8	0	0	---	0.00	30.402 
21:55	23.8	23.8	23.8	67	14.5	0	0	---	0.00	30.402 
22:00	23.8	23.8	23.8	67	14.5	0	0	---	0.00	30.408 
22:05	23.8	23.8	23.8	67	14.5	0	0	---	0.00	30.408 
22:10	23.9	23.9	23.9	66	14.2	0	0	---	0.00	30.408 
22:15	23.9	23.9	23.9	66	14.2	0	1	90	0.00	30.413 
22:20	24.1	24.1	24.1	65	14.1	0	1	90	0.00	30.413 
22:25	24.2	24.2	24.2	65	14.2	0	1	90	0.00	30.413 
22:30	24.4	24.4	24.4	64	14.0	0	0	---	0.00	30.414 
22:35	24.4	24.4	24.4	64	14.0	0	0	---	0.00	30.414 
22:40	24.2	24.2	24.2	64	13.8	0	1	90	0.00	30.414 
22:45	24.1	24.1	24.1	64	13.7	0	0	---	0.00	30.427 
22:50	23.9	23.9	23.9	64	13.5	0	0	---	0.00	30.427 
22:55	23.6	23.6	23.6	64	13.2	0	0	---	0.00	30.427 
23:00	23.5	23.5	23.5	65	13.5	0	0	---	0.00	30.432 
23:05	23.5	23.5	23.5	65	13.5	0	0	---	0.00	30.432 
23:10	23.3	23.3	23.3	65	13.3	0	0	---	0.00	30.432 
23:15	23.3	23.3	23.3	66	13.6	0	1	90	0.00	30.436 
23:20	23.3	23.3	23.3	66	13.6	0	1	90	0.00	30.436 
23:25	23.3	23.3	23.3	66	13.6	0	0	---	0.00	30.436 
23:30	23.3	23.3	23.3	66	13.6	0	0	---	0.00	30.443 
23:35	23.5	23.5	23.5	66	13.8	0	0	---	0.00	30.443 
23:40	23.5	23.5	23.5	66	13.8	0	1	90	0.00	30.443 
23:45	23.5	23.5	23.5	65	13.5	0	1	90	0.00	30.447 
23:50	23.5	23.5	23.5	65	13.5	0	1	90	0.00	30.447 
23:55	23.3	23.3	23.3	65	13.3	0	1	90	0.00	30.447 

CoCoRaHS
IN-AL-39
A2 Web Hosting
Creative Commons License
GoDaddy
search engine by freefind advanced

loaded 2018-11-21 00:39:42 • last modified 2010-11-18 10:43:29
Privacy PolicyDisclaimer
• wx.awcolley.com is powered by PmWiki v.2002016 •
• all content (unless otherwise noted) © 2018 A W Colley